sensor_id;sensor_type;location;lat;lon;timestamp;temperature;humidity
3330;DHT22;1677;49.576;10.990;2022-09-27T00:02:18;14.50;99.90
3330;DHT22;1677;49.576;10.990;2022-09-27T00:04:44;14.80;99.90
3330;DHT22;1677;49.576;10.990;2022-09-27T00:07:10;14.50;99.90
3330;DHT22;1677;49.576;10.990;2022-09-27T00:09:36;14.10;99.90
3330;DHT22;1677;49.576;10.990;2022-09-27T00:12:01;13.70;99.90
3330;DHT22;1677;49.576;10.990;2022-09-27T00:14:27;13.40;99.90
3330;DHT22;1677;49.576;10.990;2022-09-27T00:16:53;13.10;99.90
3330;DHT22;1677;49.576;10.990;2022-09-27T00:19:22;13.00;99.90
3330;DHT22;1677;49.576;10.990;2022-09-27T00:21:49;12.90;99.90
3330;DHT22;1677;49.576;10.990;2022-09-27T00:24:17;12.80;99.90
3330;DHT22;1677;49.576;10.990;2022-09-27T00:26:43;12.70;99.90
3330;DHT22;1677;49.576;10.990;2022-09-27T00:29:11;12.60;99.90
3330;DHT22;1677;49.576;10.990;2022-09-27T00:31:37;12.50;99.90
3330;DHT22;1677;49.576;10.990;2022-09-27T00:34:04;12.50;99.90
3330;DHT22;1677;49.576;10.990;2022-09-27T00:36:31;12.50;99.90
3330;DHT22;1677;49.576;10.990;2022-09-27T00:38:57;12.40;99.90
3330;DHT22;1677;49.576;10.990;2022-09-27T00:41:29;12.40;99.90
3330;DHT22;1677;49.576;10.990;2022-09-27T00:44:01;12.40;99.90
3330;DHT22;1677;49.576;10.990;2022-09-27T00:46:40;12.40;99.90
3330;DHT22;1677;49.576;10.990;2022-09-27T00:49:24;12.40;99.90
3330;DHT22;1677;49.576;10.990;2022-09-27T00:51:56;12.40;99.90
3330;DHT22;1677;49.576;10.990;2022-09-27T00:54:25;12.30;99.90
3330;DHT22;1677;49.576;10.990;2022-09-27T00:56:53;12.30;99.90
3330;DHT22;1677;49.576;10.990;2022-09-27T01:01:49;12.60;99.90
3330;DHT22;1677;49.576;10.990;2022-09-27T01:04:18;13.20;99.90
3330;DHT22;1677;49.576;10.990;2022-09-27T01:06:47;13.70;99.90
3330;DHT22;1677;49.576;10.990;2022-09-27T01:09:13;14.20;99.90
3330;DHT22;1677;49.576;10.990;2022-09-27T01:12:27;14.40;99.90
3330;DHT22;1677;49.576;10.990;2022-09-27T01:37:33;12.00;99.90
3330;DHT22;1677;49.576;10.990;2022-09-27T01:45:25;11.70;99.90
3330;DHT22;1677;49.576;10.990;2022-09-27T01:47:57;11.80;99.90
3330;DHT22;1677;49.576;10.990;2022-09-27T01:50:50;11.70;99.90
3330;DHT22;1677;49.576;10.990;2022-09-27T01:53:18;11.70;99.90
3330;DHT22;1677;49.576;10.990;2022-09-27T01:55:46;11.60;99.90
3330;DHT22;1677;49.576;10.990;2022-09-27T01:58:28;11.60;99.90
3330;DHT22;1677;49.576;10.990;2022-09-27T02:00:56;11.50;99.90
3330;DHT22;1677;49.576;10.990;2022-09-27T02:03:32;11.50;99.90
3330;DHT22;1677;49.576;10.990;2022-09-27T02:06:02;11.50;99.90
3330;DHT22;1677;49.576;10.990;2022-09-27T02:09:03;11.60;99.90
3330;DHT22;1677;49.576;10.990;2022-09-27T02:11:30;12.30;99.90
3330;DHT22;1677;49.576;10.990;2022-09-27T02:14:07;13.20;99.90
3330;DHT22;1677;49.576;10.990;2022-09-27T02:16:48;13.90;99.90
3330;DHT22;1677;49.576;10.990;2022-09-27T02:19:39;14.20;99.90
3330;DHT22;1677;49.576;10.990;2022-09-27T02:22:24;13.90;99.90
3330;DHT22;1677;49.576;10.990;2022-09-27T02:24:58;13.40;99.90
3330;DHT22;1677;49.576;10.990;2022-09-27T02:27:39;12.80;99.90
3330;DHT22;1677;49.576;10.990;2022-09-27T02:30:11;12.40;99.90
3330;DHT22;1677;49.576;10.990;2022-09-27T02:32:38;12.20;99.90
3330;DHT22;1677;49.576;10.990;2022-09-27T02:35:11;12.00;99.90
3330;DHT22;1677;49.576;10.990;2022-09-27T02:37:38;11.80;99.90
3330;DHT22;1677;49.576;10.990;2022-09-27T02:40:04;11.70;99.90
3330;DHT22;1677;49.576;10.990;2022-09-27T02:42:31;11.50;99.90
3330;DHT22;1677;49.576;10.990;2022-09-27T02:44:57;11.50;99.90
3330;DHT22;1677;49.576;10.990;2022-09-27T02:56:06;11.40;99.90
3330;DHT22;1677;49.576;10.990;2022-09-27T03:04:20;11.40;99.90
3330;DHT22;1677;49.576;10.990;2022-09-27T03:06:48;11.30;99.90
3330;DHT22;1677;49.576;10.990;2022-09-27T03:11:43;11.30;99.90
3330;DHT22;1677;49.576;10.990;2022-09-27T03:14:08;11.30;99.90
3330;DHT22;1677;49.576;10.990;2022-09-27T03:16:34;11.30;99.90
3330;DHT22;1677;49.576;10.990;2022-09-27T03:19:00;11.70;99.90
3330;DHT22;1677;49.576;10.990;2022-09-27T03:21:25;12.30;99.90
3330;DHT22;1677;49.576;10.990;2022-09-27T03:23:51;12.80;99.90
3330;DHT22;1677;49.576;10.990;2022-09-27T03:26:16;13.50;99.90
3330;DHT22;1677;49.576;10.990;2022-09-27T03:28:42;13.90;99.90
3330;DHT22;1677;49.576;10.990;2022-09-27T03:31:08;13.60;99.90
3330;DHT22;1677;49.576;10.990;2022-09-27T03:33:33;13.10;99.90
3330;DHT22;1677;49.576;10.990;2022-09-27T03:35:59;12.60;99.90
3330;DHT22;1677;49.576;10.990;2022-09-27T03:38:25;12.20;99.90
3330;DHT22;1677;49.576;10.990;2022-09-27T03:40:50;11.90;99.90
3330;DHT22;1677;49.576;10.990;2022-09-27T03:43:17;11.70;99.90
3330;DHT22;1677;49.576;10.990;2022-09-27T03:45:43;11.60;99.90
3330;DHT22;1677;49.576;10.990;2022-09-27T03:48:10;11.50;99.90
3330;DHT22;1677;49.576;10.990;2022-09-27T03:50:35;11.40;99.90
3330;DHT22;1677;49.576;10.990;2022-09-27T03:53:01;11.30;99.90
3330;DHT22;1677;49.576;10.990;2022-09-27T03:55:27;11.20;99.90
3330;DHT22;1677;49.576;10.990;2022-09-27T03:57:52;11.20;99.90
3330;DHT22;1677;49.576;10.990;2022-09-27T04:00:18;11.10;99.90
3330;DHT22;1677;49.576;10.990;2022-09-27T04:02:44;11.20;99.90
3330;DHT22;1677;49.576;10.990;2022-09-27T04:05:10;11.30;99.90
3330;DHT22;1677;49.576;10.990;2022-09-27T04:07:35;11.20;99.90
3330;DHT22;1677;49.576;10.990;2022-09-27T04:10:02;11.20;99.90
3330;DHT22;1677;49.576;10.990;2022-09-27T04:12:28;11.10;99.90
3330;DHT22;1677;49.576;10.990;2022-09-27T04:14:54;11.10;99.90
3330;DHT22;1677;49.576;10.990;2022-09-27T04:17:20;11.10;99.90
3330;DHT22;1677;49.576;10.990;2022-09-27T04:19:45;11.10;99.90
3330;DHT22;1677;49.576;10.990;2022-09-27T04:22:11;11.10;99.90
3330;DHT22;1677;49.576;10.990;2022-09-27T04:24:38;11.10;99.90
3330;DHT22;1677;49.576;10.990;2022-09-27T04:27:03;11.10;99.90
3330;DHT22;1677;49.576;10.990;2022-09-27T04:29:29;11.20;99.90
3330;DHT22;1677;49.576;10.990;2022-09-27T04:31:54;11.70;99.90
3330;DHT22;1677;49.576;10.990;2022-09-27T04:34:20;12.30;99.90
3330;DHT22;1677;49.576;10.990;2022-09-27T04:37:05;13.10;99.90
3330;DHT22;1677;49.576;10.990;2022-09-27T04:39:32;13.30;99.90
3330;DHT22;1677;49.576;10.990;2022-09-27T04:41:57;13.10;99.90
3330;DHT22;1677;49.576;10.990;2022-09-27T04:44:23;12.60;99.90
3330;DHT22;1677;49.576;10.990;2022-09-27T04:46:48;12.30;99.90
3330;DHT22;1677;49.576;10.990;2022-09-27T04:49:14;11.90;99.90
3330;DHT22;1677;49.576;10.990;2022-09-27T04:51:40;11.50;99.90
3330;DHT22;1677;49.576;10.990;2022-09-27T04:54:05;11.30;99.90
3330;DHT22;1677;49.576;10.990;2022-09-27T04:56:31;11.10;99.90
3330;DHT22;1677;49.576;10.990;2022-09-27T04:58:56;11.10;99.90
3330;DHT22;1677;49.576;10.990;2022-09-27T05:01:23;11.00;99.90
3330;DHT22;1677;49.576;10.990;2022-09-27T05:03:48;11.00;99.90
3330;DHT22;1677;49.576;10.990;2022-09-27T05:06:14;11.00;99.90
3330;DHT22;1677;49.576;10.990;2022-09-27T05:08:40;10.90;99.90
3330;DHT22;1677;49.576;10.990;2022-09-27T05:11:05;10.90;99.90
3330;DHT22;1677;49.576;10.990;2022-09-27T05:13:31;10.90;99.90
3330;DHT22;1677;49.576;10.990;2022-09-27T05:16:03;10.90;99.90
3330;DHT22;1677;49.576;10.990;2022-09-27T05:18:29;10.80;99.90
3330;DHT22;1677;49.576;10.990;2022-09-27T05:20:55;10.80;99.90
3330;DHT22;1677;49.576;10.990;2022-09-27T05:23:23;10.80;99.90
3330;DHT22;1677;49.576;10.990;2022-09-27T05:25:49;10.70;99.90
3330;DHT22;1677;49.576;10.990;2022-09-27T05:28:14;10.70;99.90
3330;DHT22;1677;49.576;10.990;2022-09-27T05:30:40;10.60;99.90
3330;DHT22;1677;49.576;10.990;2022-09-27T05:33:06;10.50;99.90
3330;DHT22;1677;49.576;10.990;2022-09-27T05:35:31;10.50;99.90
3330;DHT22;1677;49.576;10.990;2022-09-27T05:37:59;10.60;99.90
3330;DHT22;1677;49.576;10.990;2022-09-27T05:40:25;10.60;99.90
3330;DHT22;1677;49.576;10.990;2022-09-27T05:42:51;10.70;99.90
3330;DHT22;1677;49.576;10.990;2022-09-27T05:45:18;11.30;99.90
3330;DHT22;1677;49.576;10.990;2022-09-27T05:47:52;12.00;99.90
3330;DHT22;1677;49.576;10.990;2022-09-27T05:50:17;12.90;99.90
3330;DHT22;1677;49.576;10.990;2022-09-27T05:52:43;13.40;99.90
3330;DHT22;1677;49.576;10.990;2022-09-27T05:55:08;13.40;99.90
3330;DHT22;1677;49.576;10.990;2022-09-27T05:57:34;12.90;99.90
3330;DHT22;1677;49.576;10.990;2022-09-27T06:00:00;12.50;99.90
3330;DHT22;1677;49.576;10.990;2022-09-27T06:02:25;12.00;99.90
3330;DHT22;1677;49.576;10.990;2022-09-27T06:04:51;11.70;99.90
3330;DHT22;1677;49.576;10.990;2022-09-27T06:07:17;11.30;99.90
3330;DHT22;1677;49.576;10.990;2022-09-27T06:09:42;11.20;99.90
3330;DHT22;1677;49.576;10.990;2022-09-27T06:12:08;11.10;99.90
3330;DHT22;1677;49.576;10.990;2022-09-27T06:14:36;11.00;99.90
3330;DHT22;1677;49.576;10.990;2022-09-27T06:17:03;10.90;99.90
3330;DHT22;1677;49.576;10.990;2022-09-27T06:19:28;10.90;99.90
3330;DHT22;1677;49.576;10.990;2022-09-27T06:21:54;10.90;99.90
3330;DHT22;1677;49.576;10.990;2022-09-27T06:24:20;10.90;99.90
3330;DHT22;1677;49.576;10.990;2022-09-27T06:26:45;10.90;99.90
3330;DHT22;1677;49.576;10.990;2022-09-27T06:29:11;10.80;99.90
3330;DHT22;1677;49.576;10.990;2022-09-27T06:31:37;10.80;99.90
3330;DHT22;1677;49.576;10.990;2022-09-27T06:34:03;10.80;99.90
3330;DHT22;1677;49.576;10.990;2022-09-27T06:36:28;10.80;99.90
3330;DHT22;1677;49.576;10.990;2022-09-27T06:38:54;10.80;99.90
3330;DHT22;1677;49.576;10.990;2022-09-27T06:41:19;10.80;99.90
3330;DHT22;1677;49.576;10.990;2022-09-27T06:43:47;10.70;99.90
3330;DHT22;1677;49.576;10.990;2022-09-27T06:46:13;10.70;99.90
3330;DHT22;1677;49.576;10.990;2022-09-27T06:48:40;10.70;99.90
3330;DHT22;1677;49.576;10.990;2022-09-27T06:51:06;10.70;99.90
3330;DHT22;1677;49.576;10.990;2022-09-27T06:53:32;10.70;99.90
3330;DHT22;1677;49.576;10.990;2022-09-27T06:56:01;10.70;99.90
3330;DHT22;1677;49.576;10.990;2022-09-27T06:58:27;10.90;99.90
3330;DHT22;1677;49.576;10.990;2022-09-27T07:01:11;11.30;99.90
3330;DHT22;1677;49.576;10.990;2022-09-27T07:03:37;11.90;99.90
3330;DHT22;1677;49.576;10.990;2022-09-27T07:06:07;12.20;99.90
3330;DHT22;1677;49.576;10.990;2022-09-27T07:08:36;12.40;99.90
3330;DHT22;1677;49.576;10.990;2022-09-27T07:11:05;12.00;99.90
3330;DHT22;1677;49.576;10.990;2022-09-27T07:13:32;11.70;99.90
3330;DHT22;1677;49.576;10.990;2022-09-27T07:15:59;11.30;99.90
3330;DHT22;1677;49.576;10.990;2022-09-27T07:18:25;11.20;99.90
3330;DHT22;1677;49.576;10.990;2022-09-27T07:20:52;10.90;99.90
3330;DHT22;1677;49.576;10.990;2022-09-27T07:23:18;10.90;99.90
3330;DHT22;1677;49.576;10.990;2022-09-27T07:25:45;10.90;99.90
3330;DHT22;1677;49.576;10.990;2022-09-27T07:28:16;10.80;99.90
3330;DHT22;1677;49.576;10.990;2022-09-27T07:30:42;10.70;99.90
3330;DHT22;1677;49.576;10.990;2022-09-27T07:33:09;10.70;99.90
3330;DHT22;1677;49.576;10.990;2022-09-27T07:35:37;10.80;99.90
3330;DHT22;1677;49.576;10.990;2022-09-27T07:38:05;10.70;99.90
3330;DHT22;1677;49.576;10.990;2022-09-27T07:40:33;10.70;99.90
3330;DHT22;1677;49.576;10.990;2022-09-27T07:42:58;10.70;99.90
3330;DHT22;1677;49.576;10.990;2022-09-27T07:45:25;10.70;99.90
3330;DHT22;1677;49.576;10.990;2022-09-27T07:47:51;10.80;99.90
3330;DHT22;1677;49.576;10.990;2022-09-27T07:50:17;10.80;99.90
3330;DHT22;1677;49.576;10.990;2022-09-27T07:52:45;10.90;99.90
3330;DHT22;1677;49.576;10.990;2022-09-27T07:55:12;11.00;99.90
3330;DHT22;1677;49.576;10.990;2022-09-27T07:57:39;11.10;99.90
3330;DHT22;1677;49.576;10.990;2022-09-27T08:00:08;11.10;99.90
3330;DHT22;1677;49.576;10.990;2022-09-27T08:02:34;11.10;99.90
3330;DHT22;1677;49.576;10.990;2022-09-27T08:04:59;11.10;99.90
3330;DHT22;1677;49.576;10.990;2022-09-27T08:07:26;11.10;99.90
3330;DHT22;1677;49.576;10.990;2022-09-27T08:09:52;11.10;99.90
3330;DHT22;1677;49.576;10.990;2022-09-27T08:12:18;11.10;99.90
3330;DHT22;1677;49.576;10.990;2022-09-27T08:14:46;11.20;99.90
3330;DHT22;1677;49.576;10.990;2022-09-27T08:17:12;11.40;99.90
3330;DHT22;1677;49.576;10.990;2022-09-27T08:19:38;11.80;99.90
3330;DHT22;1677;49.576;10.990;2022-09-27T08:22:05;12.00;99.90
3330;DHT22;1677;49.576;10.990;2022-09-27T08:24:31;12.50;99.90
3330;DHT22;1677;49.576;10.990;2022-09-27T08:26:58;12.80;99.90
3330;DHT22;1677;49.576;10.990;2022-09-27T08:29:23;12.70;99.90
3330;DHT22;1677;49.576;10.990;2022-09-27T08:31:52;12.50;99.90
3330;DHT22;1677;49.576;10.990;2022-09-27T08:34:19;12.20;99.90
3330;DHT22;1677;49.576;10.990;2022-09-27T08:36:44;11.90;99.90
3330;DHT22;1677;49.576;10.990;2022-09-27T08:39:10;11.60;99.90
3330;DHT22;1677;49.576;10.990;2022-09-27T08:44:58;11.50;99.90
3330;DHT22;1677;49.576;10.990;2022-09-27T08:55:46;11.30;99.90
3330;DHT22;1677;49.576;10.990;2022-09-27T08:58:26;11.30;99.90
3330;DHT22;1677;49.576;10.990;2022-09-27T09:00:54;11.20;99.90
3330;DHT22;1677;49.576;10.990;2022-09-27T09:03:27;11.20;99.90
3330;DHT22;1677;49.576;10.990;2022-09-27T09:06:20;11.20;99.90
3330;DHT22;1677;49.576;10.990;2022-09-27T09:21:32;11.40;99.90
3330;DHT22;1677;49.576;10.990;2022-09-27T09:29:55;11.70;99.90
3330;DHT22;1677;49.576;10.990;2022-09-27T09:32:41;12.10;99.90
3330;DHT22;1677;49.576;10.990;2022-09-27T09:35:40;12.60;99.90
3330;DHT22;1677;49.576;10.990;2022-09-27T09:38:14;13.20;99.90
3330;DHT22;1677;49.576;10.990;2022-09-27T09:40:50;13.50;99.90
3330;DHT22;1677;49.576;10.990;2022-09-27T09:43:37;14.00;99.90
3330;DHT22;1677;49.576;10.990;2022-09-27T09:48:59;13.70;99.90
3330;DHT22;1677;49.576;10.990;2022-09-27T09:51:33;13.40;99.90
3330;DHT22;1677;49.576;10.990;2022-09-27T09:54:05;13.20;99.90
3330;DHT22;1677;49.576;10.990;2022-09-27T09:56:43;12.90;99.90
3330;DHT22;1677;49.576;10.990;2022-09-27T09:59:27;12.60;99.90
3330;DHT22;1677;49.576;10.990;2022-09-27T10:01:57;12.40;99.90
3330;DHT22;1677;49.576;10.990;2022-09-27T10:04:26;12.30;99.90
3330;DHT22;1677;49.576;10.990;2022-09-27T10:06:54;12.30;99.90
3330;DHT22;1677;49.576;10.990;2022-09-27T10:09:23;12.20;99.90
3330;DHT22;1677;49.576;10.990;2022-09-27T10:11:51;12.20;99.90
3330;DHT22;1677;49.576;10.990;2022-09-27T10:14:18;12.10;99.90
3330;DHT22;1677;49.576;10.990;2022-09-27T10:16:53;12.20;99.90
3330;DHT22;1677;49.576;10.990;2022-09-27T10:19:27;12.20;99.90
3330;DHT22;1677;49.576;10.990;2022-09-27T10:21:58;12.00;99.90
3330;DHT22;1677;49.576;10.990;2022-09-27T10:24:26;12.00;99.90
3330;DHT22;1677;49.576;10.990;2022-09-27T10:26:57;11.90;99.90
3330;DHT22;1677;49.576;10.990;2022-09-27T10:31:53;11.90;99.90
3330;DHT22;1677;49.576;10.990;2022-09-27T10:34:34;11.90;99.90
3330;DHT22;1677;49.576;10.990;2022-09-27T10:39:31;11.60;99.90
3330;DHT22;1677;49.576;10.990;2022-09-27T10:41:57;11.40;99.90
3330;DHT22;1677;49.576;10.990;2022-09-27T10:44:30;11.50;99.90
3330;DHT22;1677;49.576;10.990;2022-09-27T10:47:06;12.00;99.90
3330;DHT22;1677;49.576;10.990;2022-09-27T10:49:34;12.80;99.90
3330;DHT22;1677;49.576;10.990;2022-09-27T10:52:07;13.60;99.90
3330;DHT22;1677;49.576;10.990;2022-09-27T10:54:40;13.80;99.90
3330;DHT22;1677;49.576;10.990;2022-09-27T10:59:40;13.40;99.90
3330;DHT22;1677;49.576;10.990;2022-09-27T11:02:19;13.10;99.90
3330;DHT22;1677;49.576;10.990;2022-09-27T11:07:26;12.60;99.90
3330;DHT22;1677;49.576;10.990;2022-09-27T11:10:01;12.50;99.90
3330;DHT22;1677;49.576;10.990;2022-09-27T11:12:30;12.70;99.90
3330;DHT22;1677;49.576;10.990;2022-09-27T11:15:04;13.20;99.90
3330;DHT22;1677;49.576;10.990;2022-09-27T11:17:43;14.00;99.90
3330;DHT22;1677;49.576;10.990;2022-09-27T11:20:19;14.30;99.90
3330;DHT22;1677;49.576;10.990;2022-09-27T11:22:55;14.00;99.90
3330;DHT22;1677;49.576;10.990;2022-09-27T11:25:56;13.60;99.90
3330;DHT22;1677;49.576;10.990;2022-09-27T11:31:30;12.60;99.90
3330;DHT22;1677;49.576;10.990;2022-09-27T11:37:02;12.50;99.90
3330;DHT22;1677;49.576;10.990;2022-09-27T11:39:50;12.80;99.90
3330;DHT22;1677;49.576;10.990;2022-09-27T11:42:58;13.10;99.90
3330;DHT22;1677;49.576;10.990;2022-09-27T12:01:53;15.00;99.90
3330;DHT22;1677;49.576;10.990;2022-09-27T12:07:19;15.60;99.90
3330;DHT22;1677;49.576;10.990;2022-09-27T12:09:51;15.70;99.90
3330;DHT22;1677;49.576;10.990;2022-09-27T12:12:27;15.40;99.90
3330;DHT22;1677;49.576;10.990;2022-09-27T12:14:57;15.40;99.90
3330;DHT22;1677;49.576;10.990;2022-09-27T12:17:30;15.20;99.90
3330;DHT22;1677;49.576;10.990;2022-09-27T12:19:59;15.00;99.90
3330;DHT22;1677;49.576;10.990;2022-09-27T12:22:31;15.00;99.90
3330;DHT22;1677;49.576;10.990;2022-09-27T12:24:58;15.20;99.90
3330;DHT22;1677;49.576;10.990;2022-09-27T12:29:57;14.80;99.90
3330;DHT22;1677;49.576;10.990;2022-09-27T12:35:18;14.30;99.90
3330;DHT22;1677;49.576;10.990;2022-09-27T12:40:25;14.00;99.90
3330;DHT22;1677;49.576;10.990;2022-09-27T12:43:18;13.90;99.90
3330;DHT22;1677;49.576;10.990;2022-09-27T12:46:01;13.80;99.90
3330;DHT22;1677;49.576;10.990;2022-09-27T12:56:15;12.80;99.90
3330;DHT22;1677;49.576;10.990;2022-09-27T13:05:03;13.40;99.90
3330;DHT22;1677;49.576;10.990;2022-09-27T13:13:15;13.20;99.90
3330;DHT22;1677;49.576;10.990;2022-09-27T13:15:43;12.60;99.90
3330;DHT22;1677;49.576;10.990;2022-09-27T13:20:53;12.10;99.90
3330;DHT22;1677;49.576;10.990;2022-09-27T13:25:59;12.00;99.90
3330;DHT22;1677;49.576;10.990;2022-09-27T13:31:02;12.10;99.90
3330;DHT22;1677;49.576;10.990;2022-09-27T13:33:31;12.10;99.90
3330;DHT22;1677;49.576;10.990;2022-09-27T13:44:21;12.00;99.90
3330;DHT22;1677;49.576;10.990;2022-09-27T13:47:32;11.90;99.90
3330;DHT22;1677;49.576;10.990;2022-09-27T13:50:19;11.70;99.90
3330;DHT22;1677;49.576;10.990;2022-09-27T13:53:05;11.70;99.90
3330;DHT22;1677;49.576;10.990;2022-09-27T13:55:42;11.70;99.90
3330;DHT22;1677;49.576;10.990;2022-09-27T14:03:58;11.60;99.90
3330;DHT22;1677;49.576;10.990;2022-09-27T14:06:29;11.60;99.90
3330;DHT22;1677;49.576;10.990;2022-09-27T14:09:05;11.60;99.90
3330;DHT22;1677;49.576;10.990;2022-09-27T14:11:36;12.00;99.90
3330;DHT22;1677;49.576;10.990;2022-09-27T14:14:04;12.60;99.90
3330;DHT22;1677;49.576;10.990;2022-09-27T14:16:33;13.20;99.90
3330;DHT22;1677;49.576;10.990;2022-09-27T14:19:00;13.70;99.90
3330;DHT22;1677;49.576;10.990;2022-09-27T14:21:35;13.90;99.90
3330;DHT22;1677;49.576;10.990;2022-09-27T14:29:45;12.50;99.90
3330;DHT22;1677;49.576;10.990;2022-09-27T14:32:14;12.30;99.90
3330;DHT22;1677;49.576;10.990;2022-09-27T14:34:41;12.10;99.90
3330;DHT22;1677;49.576;10.990;2022-09-27T14:37:22;11.90;99.90
3330;DHT22;1677;49.576;10.990;2022-09-27T14:40:06;11.90;99.90
3330;DHT22;1677;49.576;10.990;2022-09-27T14:42:35;11.90;99.90
3330;DHT22;1677;49.576;10.990;2022-09-27T14:45:20;11.90;99.90
3330;DHT22;1677;49.576;10.990;2022-09-27T14:47:48;12.00;99.90
3330;DHT22;1677;49.576;10.990;2022-09-27T14:50:26;11.90;99.90
3330;DHT22;1677;49.576;10.990;2022-09-27T14:52:53;11.90;99.90
3330;DHT22;1677;49.576;10.990;2022-09-27T14:55:22;11.90;99.90
3330;DHT22;1677;49.576;10.990;2022-09-27T14:57:54;12.00;99.90
3330;DHT22;1677;49.576;10.990;2022-09-27T15:00:22;12.00;99.90
3330;DHT22;1677;49.576;10.990;2022-09-27T15:02:51;11.90;99.90
3330;DHT22;1677;49.576;10.990;2022-09-27T15:05:24;11.80;99.90
3330;DHT22;1677;49.576;10.990;2022-09-27T15:07:51;11.90;99.90
3330;DHT22;1677;49.576;10.990;2022-09-27T15:10:22;11.80;99.90
3330;DHT22;1677;49.576;10.990;2022-09-27T15:12:53;11.80;99.90
3330;DHT22;1677;49.576;10.990;2022-09-27T15:15:23;11.80;99.90
3330;DHT22;1677;49.576;10.990;2022-09-27T15:17:50;11.70;99.90
3330;DHT22;1677;49.576;10.990;2022-09-27T15:20:26;11.70;99.90
3330;DHT22;1677;49.576;10.990;2022-09-27T15:22:57;12.10;99.90
3330;DHT22;1677;49.576;10.990;2022-09-27T15:25:24;12.80;99.90
3330;DHT22;1677;49.576;10.990;2022-09-27T15:28:00;13.60;99.90
3330;DHT22;1677;49.576;10.990;2022-09-27T15:30:49;14.20;99.90
3330;DHT22;1677;49.576;10.990;2022-09-27T15:33:21;14.40;99.90
3330;DHT22;1677;49.576;10.990;2022-09-27T15:35:51;14.10;99.90
3330;DHT22;1677;49.576;10.990;2022-09-27T15:46:00;12.60;99.90
3330;DHT22;1677;49.576;10.990;2022-09-27T15:48:28;12.30;99.90
3330;DHT22;1677;49.576;10.990;2022-09-27T15:50:54;12.20;99.90
3330;DHT22;1677;49.576;10.990;2022-09-27T15:53:41;12.00;99.90
3330;DHT22;1677;49.576;10.990;2022-09-27T15:56:12;11.80;99.90
3330;DHT22;1677;49.576;10.990;2022-09-27T15:58:39;11.70;99.90
3330;DHT22;1677;49.576;10.990;2022-09-27T16:01:05;11.60;99.90
3330;DHT22;1677;49.576;10.990;2022-09-27T16:03:31;11.60;99.90
3330;DHT22;1677;49.576;10.990;2022-09-27T16:05:58;11.70;99.90
3330;DHT22;1677;49.576;10.990;2022-09-27T16:08:25;11.70;99.90
3330;DHT22;1677;49.576;10.990;2022-09-27T16:10:55;11.70;99.90
3330;DHT22;1677;49.576;10.990;2022-09-27T16:13:25;11.70;99.90
3330;DHT22;1677;49.576;10.990;2022-09-27T16:15:51;11.70;99.90
3330;DHT22;1677;49.576;10.990;2022-09-27T16:18:17;11.70;99.90
3330;DHT22;1677;49.576;10.990;2022-09-27T16:20:43;11.70;99.90
3330;DHT22;1677;49.576;10.990;2022-09-27T16:23:09;11.70;99.90
3330;DHT22;1677;49.576;10.990;2022-09-27T16:25:35;11.60;99.90
3330;DHT22;1677;49.576;10.990;2022-09-27T16:28:01;11.70;99.90
3330;DHT22;1677;49.576;10.990;2022-09-27T16:30:27;11.60;99.90
3330;DHT22;1677;49.576;10.990;2022-09-27T16:32:54;11.60;99.90
3330;DHT22;1677;49.576;10.990;2022-09-27T16:35:21;11.90;99.90
3330;DHT22;1677;49.576;10.990;2022-09-27T16:37:47;12.60;99.90
3330;DHT22;1677;49.576;10.990;2022-09-27T16:40:14;13.20;99.90
3330;DHT22;1677;49.576;10.990;2022-09-27T16:42:42;13.50;99.90
3330;DHT22;1677;49.576;10.990;2022-09-27T16:45:08;13.90;99.90
3330;DHT22;1677;49.576;10.990;2022-09-27T16:47:34;13.90;99.90
3330;DHT22;1677;49.576;10.990;2022-09-27T16:50:00;13.50;99.90
3330;DHT22;1677;49.576;10.990;2022-09-27T16:52:44;12.90;99.90
3330;DHT22;1677;49.576;10.990;2022-09-27T16:55:14;12.50;99.90
3330;DHT22;1677;49.576;10.990;2022-09-27T16:57:42;12.20;99.90
3330;DHT22;1677;49.576;10.990;2022-09-27T17:00:08;11.90;99.90
3330;DHT22;1677;49.576;10.990;2022-09-27T17:02:34;11.70;99.90
3330;DHT22;1677;49.576;10.990;2022-09-27T17:05:00;11.60;99.90
3330;DHT22;1677;49.576;10.990;2022-09-27T17:07:26;11.40;99.90
3330;DHT22;1677;49.576;10.990;2022-09-27T17:09:52;11.40;99.90
3330;DHT22;1677;49.576;10.990;2022-09-27T17:12:18;11.20;99.90
3330;DHT22;1677;49.576;10.990;2022-09-27T17:14:43;11.20;99.90
3330;DHT22;1677;49.576;10.990;2022-09-27T17:17:09;11.10;99.90
3330;DHT22;1677;49.576;10.990;2022-09-27T17:19:34;11.10;99.90
3330;DHT22;1677;49.576;10.990;2022-09-27T17:22:02;11.10;99.90
3330;DHT22;1677;49.576;10.990;2022-09-27T17:24:28;11.00;99.90
3330;DHT22;1677;49.576;10.990;2022-09-27T17:26:53;11.00;99.90
3330;DHT22;1677;49.576;10.990;2022-09-27T17:29:19;11.00;99.90
3330;DHT22;1677;49.576;10.990;2022-09-27T17:31:45;11.00;99.90
3330;DHT22;1677;49.576;10.990;2022-09-27T17:34:12;10.90;99.90
3330;DHT22;1677;49.576;10.990;2022-09-27T17:36:41;10.90;99.90
3330;DHT22;1677;49.576;10.990;2022-09-27T17:39:12;10.90;99.90
3330;DHT22;1677;49.576;10.990;2022-09-27T17:41:38;10.90;99.90
3330;DHT22;1677;49.576;10.990;2022-09-27T17:44:04;10.90;99.90
3330;DHT22;1677;49.576;10.990;2022-09-27T17:46:32;10.90;99.90
3330;DHT22;1677;49.576;10.990;2022-09-27T17:48:58;11.20;99.90
3330;DHT22;1677;49.576;10.990;2022-09-27T17:51:45;11.80;99.90
3330;DHT22;1677;49.576;10.990;2022-09-27T17:54:11;12.80;99.90
3330;DHT22;1677;49.576;10.990;2022-09-27T17:56:38;13.40;99.90
3330;DHT22;1677;49.576;10.990;2022-09-27T17:59:05;13.50;99.90
3330;DHT22;1677;49.576;10.990;2022-09-27T18:01:31;13.10;99.90
3330;DHT22;1677;49.576;10.990;2022-09-27T18:03:58;12.60;99.90
3330;DHT22;1677;49.576;10.990;2022-09-27T18:06:25;12.00;99.90
3330;DHT22;1677;49.576;10.990;2022-09-27T18:08:53;11.40;99.90
3330;DHT22;1677;49.576;10.990;2022-09-27T18:11:20;11.10;99.90
3330;DHT22;1677;49.576;10.990;2022-09-27T18:13:53;10.90;99.90
3330;DHT22;1677;49.576;10.990;2022-09-27T18:16:20;10.70;99.90
3330;DHT22;1677;49.576;10.990;2022-09-27T18:18:47;10.50;99.90
3330;DHT22;1677;49.576;10.990;2022-09-27T18:21:15;10.40;99.90
3330;DHT22;1677;49.576;10.990;2022-09-27T18:23:46;10.30;99.90
3330;DHT22;1677;49.576;10.990;2022-09-27T18:26:12;10.20;99.90
3330;DHT22;1677;49.576;10.990;2022-09-27T18:28:40;10.20;99.90
3330;DHT22;1677;49.576;10.990;2022-09-27T18:31:11;10.10;99.90
3330;DHT22;1677;49.576;10.990;2022-09-27T18:33:38;10.10;99.90
3330;DHT22;1677;49.576;10.990;2022-09-27T18:36:06;10.10;99.90
3330;DHT22;1677;49.576;10.990;2022-09-27T18:38:31;10.00;99.90
3330;DHT22;1677;49.576;10.990;2022-09-27T18:41:09;10.00;99.90
3330;DHT22;1677;49.576;10.990;2022-09-27T18:43:35;10.00;99.90
3330;DHT22;1677;49.576;10.990;2022-09-27T18:46:06;10.00;99.90
3330;DHT22;1677;49.576;10.990;2022-09-27T18:48:33;9.90;99.90
3330;DHT22;1677;49.576;10.990;2022-09-27T18:51:04;9.90;99.90
3330;DHT22;1677;49.576;10.990;2022-09-27T18:53:30;9.80;99.90
3330;DHT22;1677;49.576;10.990;2022-09-27T18:56:03;9.70;99.90
3330;DHT22;1677;49.576;10.990;2022-09-27T18:58:29;9.70;99.90
3330;DHT22;1677;49.576;10.990;2022-09-27T19:01:05;9.70;99.90
3330;DHT22;1677;49.576;10.990;2022-09-27T19:03:31;9.70;99.90